createdAt,value
2023-03-15T00:01:33.375Z,0.83
2023-03-15T00:04:00.553Z,0.77
2023-03-15T00:06:29.147Z,1.01
2023-03-15T00:08:56.281Z,1.03
2023-03-15T00:11:23.441Z,1.03
2023-03-15T00:13:50.608Z,1.06
2023-03-15T00:16:17.928Z,1.05
2023-03-15T00:18:45.400Z,1.22
2023-03-15T00:21:12.600Z,1.36
2023-03-15T00:23:41.345Z,1.20
2023-03-15T00:26:08.659Z,1.24
2023-03-15T00:28:35.821Z,1.30
2023-03-15T00:31:05.323Z,1.47
2023-03-15T00:33:32.762Z,1.37
2023-03-15T00:35:59.930Z,1.42
2023-03-15T00:38:27.105Z,1.41
2023-03-15T00:40:55.782Z,1.31
2023-03-15T00:43:22.861Z,1.41
2023-03-15T00:45:50.001Z,1.23
2023-03-15T00:48:17.162Z,1.41
2023-03-15T00:50:44.233Z,1.34
2023-03-15T00:53:11.362Z,1.10
2023-03-15T00:55:38.493Z,1.15
2023-03-15T00:58:07.123Z,1.37
2023-03-15T01:00:35.281Z,1.16
2023-03-15T01:03:02.403Z,1.11
2023-03-15T01:05:29.626Z,1.20
2023-03-15T01:07:56.781Z,1.09
2023-03-15T01:10:24.025Z,1.22
2023-03-15T01:12:51.104Z,1.20
2023-03-15T01:15:20.036Z,1.06
2023-03-15T01:17:47.299Z,1.12
2023-03-15T01:20:16.089Z,1.10
2023-03-15T01:22:43.340Z,0.96
2023-03-15T01:25:11.092Z,1.07
2023-03-15T01:27:38.244Z,0.96
2023-03-15T01:30:07.135Z,1.08
2023-03-15T01:32:35.830Z,1.03
2023-03-15T01:35:02.983Z,1.04
2023-03-15T01:37:30.160Z,0.95
2023-03-15T01:39:57.282Z,0.80
2023-03-15T01:42:24.370Z,1.05
2023-03-15T01:44:55.294Z,0.76
2023-03-15T01:47:23.821Z,0.71
2023-03-15T01:49:59.221Z,0.86
2023-03-15T01:52:33.024Z,0.85
2023-03-15T01:55:07.852Z,0.64
2023-03-15T01:57:40.360Z,0.61
2023-03-15T02:00:10.641Z,0.79
2023-03-15T02:02:42.236Z,0.97
2023-03-15T02:05:15.524Z,0.73
2023-03-15T02:07:45.761Z,0.75
2023-03-15T02:10:18.780Z,0.78
2023-03-15T02:12:50.646Z,0.67
2023-03-15T02:15:18.620Z,0.70
2023-03-15T02:17:48.661Z,0.65
2023-03-15T02:20:33.101Z,0.77
2023-03-15T02:23:03.843Z,0.83
2023-03-15T02:25:43.665Z,0.68
2023-03-15T02:28:16.478Z,0.76
2023-03-15T02:30:44.262Z,0.80
2023-03-15T02:33:18.944Z,0.66
2023-03-15T02:35:46.141Z,0.75
2023-03-15T02:38:13.696Z,0.97
2023-03-15T02:40:41.362Z,0.74
2023-03-15T02:43:17.665Z,0.71
2023-03-15T02:45:47.280Z,0.74
2023-03-15T02:48:14.963Z,0.64
2023-03-15T02:50:42.064Z,0.53
2023-03-15T02:53:09.324Z,0.72
2023-03-15T02:55:36.385Z,0.76
2023-03-15T02:58:03.855Z,0.83
2023-03-15T03:00:32.554Z,0.67
2023-03-15T03:02:59.671Z,0.67
2023-03-15T03:05:27.366Z,0.59
2023-03-15T03:07:54.569Z,0.62
2023-03-15T03:10:22.676Z,0.67
2023-03-15T03:12:49.846Z,0.52
2023-03-15T03:15:16.966Z,0.68
2023-03-15T03:17:45.531Z,0.81
2023-03-15T03:20:14.367Z,0.79
2023-03-15T03:22:43.048Z,0.78
2023-03-15T03:25:11.137Z,0.72
2023-03-15T03:27:38.983Z,0.86
2023-03-15T03:30:10.373Z,0.96
2023-03-15T03:32:37.562Z,0.92
2023-03-15T03:35:07.140Z,0.92
2023-03-15T03:37:34.301Z,1.16
2023-03-15T03:40:01.503Z,1.25
2023-03-15T03:42:28.539Z,1.22
2023-03-15T03:44:55.585Z,1.15
2023-03-15T03:47:22.759Z,1.04
2023-03-15T03:49:49.864Z,0.97
2023-03-15T03:52:18.420Z,1.03
2023-03-15T03:54:45.478Z,1.19
2023-03-15T03:57:12.568Z,0.97
2023-03-15T03:59:39.667Z,0.95
2023-03-15T04:02:06.962Z,0.89
2023-03-15T04:04:34.338Z,0.94
2023-03-15T04:07:01.521Z,0.85
2023-03-15T04:09:30.180Z,0.89
2023-03-15T04:11:57.281Z,0.93
2023-03-15T04:14:24.958Z,0.88
2023-03-15T04:16:52.061Z,0.79
2023-03-15T04:19:19.223Z,0.83
2023-03-15T04:21:46.319Z,0.79
2023-03-15T04:24:13.999Z,0.93
2023-03-15T04:26:42.638Z,0.71
2023-03-15T04:29:10.802Z,0.94
2023-03-15T04:31:38.282Z,0.79
2023-03-15T04:34:06.086Z,0.98
2023-03-15T04:36:33.165Z,1.08
2023-03-15T04:39:00.311Z,0.93
2023-03-15T04:41:27.386Z,0.91
2023-03-15T04:43:55.992Z,0.97
2023-03-15T04:46:24.876Z,0.94
2023-03-15T04:48:52.169Z,0.93
2023-03-15T04:51:19.411Z,1.02
2023-03-15T04:53:46.490Z,1.16
2023-03-15T04:56:13.777Z,0.77
2023-03-15T04:58:40.979Z,0.97
2023-03-15T05:01:10.041Z,1.03
2023-03-15T05:03:37.250Z,1.09
2023-03-15T05:06:04.728Z,1.00
2023-03-15T05:08:31.952Z,1.11
2023-03-15T05:10:59.208Z,1.25
2023-03-15T05:13:26.409Z,1.03
2023-03-15T05:15:53.746Z,1.02
2023-03-15T05:18:22.649Z,1.09
2023-03-15T05:20:49.852Z,0.98
2023-03-15T05:23:17.207Z,0.95
2023-03-15T05:25:44.488Z,1.19
2023-03-15T05:28:11.627Z,1.08
2023-03-15T05:30:38.700Z,1.04
2023-03-15T05:33:05.828Z,0.97
2023-03-15T05:35:34.587Z,0.97
2023-03-15T05:38:01.727Z,0.88
2023-03-15T05:40:28.988Z,1.01
2023-03-15T05:42:56.595Z,0.94
2023-03-15T05:45:24.204Z,1.24
2023-03-15T05:47:51.335Z,0.89
2023-03-15T05:50:18.654Z,1.19
2023-03-15T05:52:47.285Z,1.12
2023-03-15T05:55:14.550Z,0.98
2023-03-15T05:57:41.771Z,1.13
2023-03-15T06:00:11.456Z,0.80
2023-03-15T06:02:38.618Z,0.94
2023-03-15T06:05:06.852Z,1.10
2023-03-15T06:07:33.953Z,0.90
2023-03-15T06:10:02.715Z,0.99
2023-03-15T06:12:29.897Z,1.01
2023-03-15T06:14:57.272Z,1.38
2023-03-15T06:17:24.851Z,2.58
2023-03-15T06:19:52.008Z,3.85
2023-03-15T06:22:19.171Z,3.44
2023-03-15T06:24:46.415Z,3.56
2023-03-15T06:27:15.051Z,4.06
2023-03-15T06:29:42.392Z,3.25
2023-03-15T06:32:10.026Z,2.76
2023-03-15T06:34:37.315Z,2.80
2023-03-15T06:37:04.533Z,2.66
2023-03-15T06:39:31.722Z,2.17
2023-03-15T06:41:58.881Z,2.17
2023-03-15T06:44:27.524Z,2.02
2023-03-15T06:46:54.666Z,2.20
2023-03-15T06:49:21.797Z,1.90
2023-03-15T06:51:48.901Z,1.81
2023-03-15T06:54:16.061Z,2.02
2023-03-15T06:56:43.263Z,1.92
2023-03-15T06:59:10.369Z,1.64
2023-03-15T07:01:38.967Z,1.52
2023-03-15T07:04:08.339Z,1.40
2023-03-15T07:06:36.320Z,1.40
2023-03-15T07:09:05.906Z,1.30
2023-03-15T07:11:33.372Z,1.16
2023-03-15T07:14:00.584Z,1.23
2023-03-15T07:16:27.772Z,1.26
2023-03-15T07:18:56.503Z,1.36
2023-03-15T07:21:23.666Z,1.32
2023-03-15T07:23:50.787Z,1.17
2023-03-15T07:26:18.129Z,1.07
2023-03-15T07:28:45.631Z,1.20
2023-03-15T07:31:12.954Z,1.20
2023-03-15T07:33:40.176Z,0.81
2023-03-15T07:36:09.326Z,0.63
2023-03-15T07:38:36.914Z,0.76
2023-03-15T07:41:06.284Z,0.96
2023-03-15T07:43:34.433Z,1.03
2023-03-15T07:46:01.833Z,0.93
2023-03-15T07:48:29.322Z,1.22
2023-03-15T07:50:56.981Z,1.02
2023-03-15T07:53:26.014Z,1.12
2023-03-15T07:55:53.449Z,0.78
2023-03-15T07:58:20.711Z,0.94
2023-03-15T08:00:48.270Z,0.85
2023-03-15T08:03:15.726Z,0.90
2023-03-15T08:05:42.933Z,0.85
2023-03-15T08:08:10.156Z,0.96
2023-03-15T08:10:38.878Z,1.16
2023-03-15T08:13:06.229Z,0.85
2023-03-15T08:15:33.534Z,0.83
2023-03-15T08:18:00.896Z,0.87
2023-03-15T08:20:29.822Z,0.93
2023-03-15T08:22:57.534Z,1.01
2023-03-15T08:25:26.120Z,1.20
2023-03-15T08:27:54.751Z,1.02
2023-03-15T08:30:22.471Z,1.68
2023-03-15T08:32:51.029Z,1.10
2023-03-15T08:35:20.349Z,1.08
2023-03-15T08:37:48.095Z,0.90
2023-03-15T08:40:17.230Z,0.86
2023-03-15T08:42:44.471Z,0.85
2023-03-15T08:45:13.097Z,0.84
2023-03-15T08:47:40.413Z,0.87
2023-03-15T08:50:11.615Z,0.84
2023-03-15T08:52:39.409Z,0.97
2023-03-15T08:55:07.942Z,0.85
2023-03-15T08:57:35.394Z,0.98
2023-03-15T09:00:05.024Z,1.46
2023-03-15T09:02:34.732Z,1.01
2023-03-15T09:05:02.079Z,0.95
2023-03-15T09:07:29.337Z,0.90
2023-03-15T09:09:56.490Z,0.74
2023-03-15T09:12:23.625Z,0.80
2023-03-15T09:14:50.898Z,1.10
2023-03-15T09:17:18.084Z,1.01
2023-03-15T09:19:46.690Z,0.89
2023-03-15T09:22:17.141Z,0.79
2023-03-15T09:24:51.734Z,1.30
2023-03-15T09:27:19.327Z,0.94
2023-03-15T09:29:46.575Z,0.75
2023-03-15T09:32:14.006Z,0.92
2023-03-15T09:34:42.254Z,0.70
2023-03-15T09:37:11.249Z,0.84
2023-03-15T09:39:38.392Z,0.70
2023-03-15T09:42:17.267Z,0.65
2023-03-15T09:44:47.967Z,0.69
2023-03-15T09:47:32.488Z,0.58
2023-03-15T09:50:07.819Z,0.73
2023-03-15T09:52:43.318Z,0.66
2023-03-15T09:55:17.429Z,0.69
2023-03-15T09:57:50.801Z,0.76
2023-03-15T10:00:24.013Z,0.72
2023-03-15T10:03:00.170Z,0.63
2023-03-15T10:05:37.871Z,0.60
2023-03-15T10:08:11.912Z,0.80
2023-03-15T10:10:49.631Z,0.82
2023-03-15T10:13:33.147Z,0.68
2023-03-15T10:16:23.045Z,0.84
2023-03-15T10:19:05.512Z,0.86
2023-03-15T10:21:48.296Z,0.73
2023-03-15T10:24:23.136Z,0.69
2023-03-15T10:26:53.798Z,0.54
2023-03-15T10:29:24.613Z,0.80
2023-03-15T10:31:55.134Z,0.81
2023-03-15T10:34:24.238Z,0.85
2023-03-15T10:36:52.127Z,0.89
2023-03-15T10:39:22.412Z,0.80
2023-03-15T10:41:51.389Z,0.94
2023-03-15T10:44:21.695Z,0.73
2023-03-15T10:47:06.986Z,1.02
2023-03-15T10:49:38.645Z,0.71
2023-03-15T10:52:06.167Z,0.78
2023-03-15T10:54:36.129Z,0.67
2023-03-15T10:57:06.789Z,0.67
2023-03-15T10:59:36.112Z,0.54
2023-03-15T11:02:22.605Z,0.78
2023-03-15T11:04:59.845Z,0.71
2023-03-15T11:07:27.031Z,0.86
2023-03-15T11:10:01.082Z,0.85
2023-03-15T11:12:29.926Z,0.86
2023-03-15T11:15:00.749Z,0.79
2023-03-15T11:17:30.857Z,0.67
2023-03-15T11:20:00.989Z,0.77
2023-03-15T11:22:28.190Z,0.83
2023-03-15T11:24:57.252Z,0.73
2023-03-15T11:27:26.888Z,0.60
2023-03-15T11:29:57.864Z,0.66
2023-03-15T11:32:29.027Z,0.68
2023-03-15T11:35:02.606Z,0.58
2023-03-15T11:37:38.391Z,0.81
2023-03-15T11:40:18.163Z,0.76
2023-03-15T11:42:54.830Z,0.87
2023-03-15T11:45:34.401Z,0.66
2023-03-15T11:48:11.450Z,0.68
2023-03-15T11:50:40.238Z,0.79
2023-03-15T11:53:11.293Z,0.75
2023-03-15T11:55:40.093Z,0.74
2023-03-15T11:58:29.536Z,0.82
2023-03-15T12:01:01.872Z,0.70
2023-03-15T12:03:33.890Z,0.76
2023-03-15T12:06:11.341Z,0.79
2023-03-15T12:08:45.732Z,0.91
2023-03-15T12:11:40.086Z,0.80
2023-03-15T12:14:26.014Z,0.79
2023-03-15T12:17:46.160Z,0.67
2023-03-15T12:20:20.727Z,0.69
2023-03-15T12:22:53.289Z,0.63
2023-03-15T12:25:29.567Z,0.84
2023-03-15T12:27:59.888Z,0.61
2023-03-15T12:30:34.025Z,0.58
2023-03-15T12:33:03.611Z,0.61
2023-03-15T12:35:39.955Z,0.53
2023-03-15T12:38:16.226Z,0.50
2023-03-15T12:40:53.323Z,0.59
2023-03-15T12:43:40.188Z,0.56
2023-03-15T12:46:08.285Z,0.55
2023-03-15T12:48:35.541Z,0.63
2023-03-15T12:51:06.164Z,0.62
2023-03-15T12:53:54.182Z,0.54
2023-03-15T12:56:56.182Z,0.52
2023-03-15T12:59:32.644Z,0.45
2023-03-15T13:02:02.791Z,0.58
2023-03-15T13:04:31.661Z,0.43
2023-03-15T13:07:18.114Z,0.61
2023-03-15T13:10:21.952Z,0.55
2023-03-15T13:12:57.663Z,0.49
2023-03-15T13:15:34.686Z,0.37
2023-03-15T13:18:15.114Z,0.46
2023-03-15T13:20:48.567Z,0.50
2023-03-15T13:23:27.103Z,0.46
2023-03-15T13:26:13.941Z,0.38
2023-03-15T13:28:48.564Z,0.52
2023-03-15T13:31:23.812Z,0.44
2023-03-15T13:33:53.707Z,0.79
2023-03-15T13:36:20.864Z,0.59
2023-03-15T13:38:50.532Z,0.59
2023-03-15T13:41:22.000Z,0.50
2023-03-15T13:43:51.125Z,0.46
2023-03-15T13:46:22.675Z,0.53
2023-03-15T13:48:51.584Z,0.45
2023-03-15T13:51:22.780Z,0.54
2023-03-15T13:53:52.845Z,0.77
2023-03-15T13:56:32.640Z,0.90
2023-03-15T13:59:06.685Z,0.42
2023-03-15T14:01:40.411Z,0.36
2023-03-15T14:04:14.691Z,0.56
2023-03-15T14:06:42.696Z,0.61
2023-03-15T14:09:16.946Z,0.71
2023-03-15T14:11:44.245Z,1.03
2023-03-15T14:14:22.843Z,1.88
2023-03-15T14:17:04.757Z,1.08
2023-03-15T14:19:35.574Z,0.60
2023-03-15T14:22:13.004Z,0.63
2023-03-15T14:24:43.482Z,0.52
2023-03-15T14:27:17.974Z,0.61
2023-03-15T14:29:50.323Z,0.73
2023-03-15T14:32:29.443Z,0.89
2023-03-15T14:35:05.970Z,0.85
2023-03-15T14:37:38.637Z,0.91
2023-03-15T14:40:18.562Z,0.49
2023-03-15T14:42:45.921Z,0.80
2023-03-15T14:45:13.867Z,1.21
2023-03-15T14:47:56.062Z,1.07
2023-03-15T14:50:26.488Z,0.78
2023-03-15T14:52:54.540Z,0.73
2023-03-15T14:55:25.037Z,0.67
2023-03-15T14:57:52.147Z,0.66
2023-03-15T15:00:20.680Z,0.62
2023-03-15T15:02:54.141Z,0.65
2023-03-15T15:05:25.748Z,0.43
2023-03-15T15:08:01.889Z,0.48
2023-03-15T15:10:30.575Z,0.50
2023-03-15T15:13:06.098Z,0.53
2023-03-15T15:15:47.412Z,0.82
2023-03-15T15:18:23.574Z,0.77
2023-03-15T15:20:51.114Z,0.79
2023-03-15T15:23:21.348Z,0.77
2023-03-15T15:25:51.894Z,1.06
2023-03-15T15:28:33.347Z,1.68
2023-03-15T15:31:02.435Z,0.65
2023-03-15T15:33:31.208Z,0.51
2023-03-15T15:35:58.915Z,0.47
2023-03-15T15:38:31.406Z,0.67
2023-03-15T15:40:58.568Z,0.58
2023-03-15T15:43:25.808Z,0.58
2023-03-15T15:45:52.936Z,0.60
2023-03-15T15:48:20.234Z,0.41
2023-03-15T15:50:49.048Z,0.38
2023-03-15T15:53:18.428Z,0.41
2023-03-15T15:55:46.199Z,0.36
2023-03-15T15:58:14.577Z,0.57
2023-03-15T16:00:41.724Z,0.53
2023-03-15T16:03:13.649Z,0.55
2023-03-15T16:05:41.653Z,0.95
2023-03-15T16:08:21.621Z,0.63
2023-03-15T16:10:49.182Z,0.67
2023-03-15T16:13:16.889Z,0.80
2023-03-15T16:15:44.148Z,0.72
2023-03-15T16:18:12.728Z,0.89
2023-03-15T16:20:41.804Z,0.59
2023-03-15T16:23:19.064Z,0.88
2023-03-15T16:25:50.241Z,1.13
2023-03-15T16:28:17.728Z,1.15
2023-03-15T16:30:46.891Z,1.68
2023-03-15T16:33:19.225Z,1.14
2023-03-15T16:35:48.096Z,0.92
2023-03-15T16:38:19.333Z,1.06
2023-03-15T16:40:46.731Z,1.06
2023-03-15T16:43:14.877Z,1.08
2023-03-15T16:45:42.262Z,1.09
2023-03-15T16:48:09.763Z,0.89
2023-03-15T16:50:37.128Z,0.54
2023-03-15T16:53:09.365Z,0.91
2023-03-15T16:55:38.843Z,0.80
2023-03-15T16:58:17.382Z,0.88
2023-03-15T17:00:44.883Z,0.69
2023-03-15T17:03:12.230Z,0.94
2023-03-15T17:05:41.634Z,0.98
2023-03-15T17:08:13.844Z,0.75
2023-03-15T17:10:43.284Z,0.87
2023-03-15T17:13:14.730Z,1.48
2023-03-15T17:15:42.425Z,1.61
2023-03-15T17:18:17.237Z,1.85
2023-03-15T17:20:45.229Z,1.36
2023-03-15T17:23:12.411Z,1.07
2023-03-15T17:25:40.249Z,1.10
2023-03-15T17:28:09.031Z,0.87
2023-03-15T17:30:37.872Z,0.84
2023-03-15T17:33:07.106Z,0.73
2023-03-15T17:35:37.706Z,0.95
2023-03-15T17:38:13.097Z,0.93
2023-03-15T17:40:40.877Z,1.11
2023-03-15T17:43:14.909Z,1.30
2023-03-15T17:45:43.365Z,1.29
2023-03-15T17:48:10.956Z,1.31
2023-03-15T17:50:38.585Z,1.14
2023-03-15T17:53:11.722Z,1.49
2023-03-15T17:55:39.107Z,1.31
2023-03-15T17:58:16.495Z,1.27
2023-03-15T18:00:43.912Z,1.22
2023-03-15T18:03:15.150Z,1.07
2023-03-15T18:05:42.465Z,1.05
2023-03-15T18:08:11.631Z,0.95
2023-03-15T18:10:41.839Z,0.84
2023-03-15T18:13:15.246Z,0.82
2023-03-15T18:15:42.553Z,0.98
2023-03-15T18:18:10.155Z,0.97
2023-03-15T18:20:37.887Z,1.11
2023-03-15T18:23:05.428Z,1.07
2023-03-15T18:25:34.877Z,1.23
2023-03-15T18:28:02.447Z,1.12
2023-03-15T18:30:31.626Z,1.20
2023-03-15T18:32:58.931Z,1.11
2023-03-15T18:35:29.763Z,1.12
2023-03-15T18:37:58.002Z,1.42
2023-03-15T18:40:27.759Z,1.41
2023-03-15T18:42:55.784Z,1.11
2023-03-15T18:45:26.183Z,1.29
2023-03-15T18:47:54.958Z,1.25
2023-03-15T18:50:22.622Z,1.57
2023-03-15T18:52:50.145Z,1.38
2023-03-15T18:55:19.708Z,1.15
2023-03-15T18:57:46.892Z,1.32
2023-03-15T19:00:18.163Z,1.22
2023-03-15T19:02:46.945Z,1.47
2023-03-15T19:05:17.222Z,1.67
2023-03-15T19:07:47.269Z,1.21
2023-03-15T19:10:18.197Z,1.02
2023-03-15T19:12:46.732Z,1.26
2023-03-15T19:15:16.188Z,1.11
2023-03-15T19:17:43.964Z,1.10
2023-03-15T19:20:14.309Z,0.99
2023-03-15T19:22:43.421Z,0.97
2023-03-15T19:25:11.844Z,1.04
2023-03-15T19:27:39.084Z,1.16
2023-03-15T19:30:09.136Z,1.08
2023-03-15T19:32:36.621Z,1.09
2023-03-15T19:35:04.665Z,1.04
2023-03-15T19:37:31.771Z,1.17
2023-03-15T19:40:00.425Z,1.19
2023-03-15T19:42:27.788Z,1.16
2023-03-15T19:44:54.965Z,1.40
2023-03-15T19:47:22.174Z,1.30
2023-03-15T19:49:49.470Z,1.12
2023-03-15T19:52:16.678Z,1.22
2023-03-15T19:54:43.812Z,1.07
2023-03-15T19:57:12.985Z,0.91
2023-03-15T19:59:40.267Z,1.05
2023-03-15T20:02:08.087Z,1.07
2023-03-15T20:04:35.983Z,1.30
2023-03-15T20:07:03.581Z,1.04
2023-03-15T20:09:30.920Z,1.00
2023-03-15T20:11:58.245Z,1.04
2023-03-15T20:14:27.045Z,0.97
2023-03-15T20:16:55.046Z,1.07
2023-03-15T20:19:31.749Z,1.02
2023-03-15T20:22:00.013Z,1.02
2023-03-15T20:24:27.807Z,1.10
2023-03-15T20:26:55.948Z,0.99
2023-03-15T20:29:23.524Z,1.27
2023-03-15T20:31:53.051Z,1.17
2023-03-15T20:34:21.548Z,1.26
2023-03-15T20:36:49.734Z,1.16
2023-03-15T20:39:17.189Z,1.13
2023-03-15T20:41:44.816Z,1.21
2023-03-15T20:44:13.449Z,1.05
2023-03-15T20:46:41.725Z,1.10
2023-03-15T20:49:10.987Z,1.20
2023-03-15T20:51:39.049Z,1.08
2023-03-15T20:54:07.348Z,1.19
2023-03-15T20:56:34.755Z,1.13
2023-03-15T20:59:02.186Z,1.01
2023-03-15T21:01:29.498Z,1.09
2023-03-15T21:03:56.785Z,0.99
2023-03-15T21:06:26.108Z,1.08
2023-03-15T21:08:54.802Z,0.87
2023-03-15T21:11:22.325Z,0.70
2023-03-15T21:13:50.325Z,0.77
2023-03-15T21:16:17.729Z,0.74
2023-03-15T21:18:46.143Z,0.80
2023-03-15T21:21:14.965Z,0.90
2023-03-15T21:23:44.764Z,0.90
2023-03-15T21:26:14.701Z,1.00
2023-03-15T21:28:43.514Z,1.97
2023-03-15T21:31:11.667Z,1.34
2023-03-15T21:33:39.596Z,1.19
2023-03-15T21:36:07.766Z,1.18
2023-03-15T21:38:35.370Z,1.25
2023-03-15T21:41:09.880Z,3.79
2023-03-15T21:43:38.697Z,8.35
2023-03-15T21:46:08.537Z,5.87
2023-03-15T21:48:37.087Z,2.93
2023-03-15T21:51:06.076Z,2.43
2023-03-15T21:53:34.327Z,2.66
2023-03-15T21:56:03.350Z,3.52
2023-03-15T21:58:32.674Z,2.45
2023-03-15T22:01:01.967Z,2.52
2023-03-15T22:03:29.442Z,4.60
2023-03-15T22:05:57.320Z,3.15
2023-03-15T22:08:25.435Z,2.34
2023-03-15T22:10:54.314Z,1.84
2023-03-15T22:13:22.140Z,1.80
2023-03-15T22:15:51.197Z,1.33
2023-03-15T22:18:19.303Z,1.27
2023-03-15T22:20:47.570Z,1.29
2023-03-15T22:23:14.876Z,1.08
2023-03-15T22:25:42.143Z,1.40
2023-03-15T22:28:09.387Z,1.31
2023-03-15T22:30:36.572Z,1.00
2023-03-15T22:33:05.477Z,1.11
2023-03-15T22:35:32.812Z,0.98
2023-03-15T22:38:00.537Z,1.09
2023-03-15T22:40:28.657Z,1.03
2023-03-15T22:42:55.858Z,1.00
2023-03-15T22:45:23.038Z,0.97
2023-03-15T22:47:50.281Z,1.14
2023-03-15T22:50:19.199Z,1.08
2023-03-15T22:52:46.368Z,1.12
2023-03-15T22:55:14.640Z,1.16
2023-03-15T22:57:41.923Z,1.09
2023-03-15T23:00:13.139Z,1.28
2023-03-15T23:02:41.121Z,1.35
2023-03-15T23:05:09.803Z,1.51
2023-03-15T23:07:39.144Z,1.52
2023-03-15T23:10:08.327Z,1.91
2023-03-15T23:12:36.802Z,2.03
2023-03-15T23:15:04.882Z,2.13
2023-03-15T23:17:32.185Z,2.24
2023-03-15T23:19:59.368Z,2.33
2023-03-15T23:22:26.491Z,2.34
2023-03-15T23:24:55.106Z,2.48
2023-03-15T23:27:22.224Z,2.54
2023-03-15T23:29:54.430Z,2.87
2023-03-15T23:32:23.508Z,2.96
2023-03-15T23:34:51.481Z,2.59
2023-03-15T23:37:18.587Z,2.59
2023-03-15T23:39:46.122Z,2.39
2023-03-15T23:42:14.998Z,2.41
2023-03-15T23:44:42.150Z,2.32
2023-03-15T23:47:09.672Z,2.34
2023-03-15T23:49:36.966Z,2.31
2023-03-15T23:52:04.348Z,2.25
2023-03-15T23:54:31.974Z,2.21
2023-03-15T23:56:59.107Z,2.52
2023-03-15T23:59:27.744Z,2.34
